createdAt,value
2023-01-28T00:00:49.177Z,7.03
2023-01-28T00:03:15.926Z,7.07
2023-01-28T00:05:43.001Z,5.67
2023-01-28T00:08:10.196Z,5.27
2023-01-28T00:10:39.518Z,7.60
2023-01-28T00:13:07.296Z,5.73
2023-01-28T00:15:34.123Z,7.67
2023-01-28T00:18:00.681Z,7.50
2023-01-28T00:20:27.231Z,7.87
2023-01-28T00:22:53.778Z,7.23
2023-01-28T00:25:20.664Z,9.73
2023-01-28T00:27:47.260Z,6.67
2023-01-28T00:30:14.103Z,6.77
2023-01-28T00:32:42.457Z,9.23
2023-01-28T00:35:10.481Z,8.30
2023-01-28T00:37:37.736Z,9.97
2023-01-28T00:40:04.576Z,8.13
2023-01-28T00:42:31.106Z,6.83
2023-01-28T00:44:57.805Z,5.93
2023-01-28T00:47:24.348Z,7.83
2023-01-28T00:49:50.881Z,6.60
2023-01-28T00:52:17.544Z,10.30
2023-01-28T00:54:44.144Z,7.03
2023-01-28T00:57:10.726Z,6.50
2023-01-28T00:59:37.274Z,10.43
2023-01-28T01:02:12.483Z,10.77
2023-01-28T01:04:40.550Z,8.50
2023-01-28T01:07:07.191Z,9.47
2023-01-28T01:09:33.800Z,8.93
2023-01-28T01:12:00.443Z,9.67
2023-01-28T01:14:27.342Z,8.70
2023-01-28T01:16:53.948Z,7.30
2023-01-28T01:19:20.543Z,8.10
2023-01-28T01:21:50.330Z,6.07
2023-01-28T01:24:17.259Z,7.73
2023-01-28T01:26:43.849Z,10.93
2023-01-28T01:29:10.449Z,7.97
2023-01-28T01:31:37.077Z,7.83
2023-01-28T01:34:03.682Z,6.00
2023-01-28T01:36:30.920Z,9.40
2023-01-28T01:38:57.586Z,9.33
2023-01-28T01:41:30.417Z,9.17
2023-01-28T01:43:59.829Z,11.47
2023-01-28T01:46:31.064Z,14.97
2023-01-28T01:49:02.858Z,15.97
2023-01-28T01:51:32.972Z,11.87
2023-01-28T01:54:00.742Z,10.30
2023-01-28T01:56:34.461Z,11.33
2023-01-28T01:59:01.803Z,10.27
2023-01-28T02:01:31.586Z,9.53
2023-01-28T02:04:20.451Z,12.93
2023-01-28T02:06:48.184Z,8.83
2023-01-28T02:09:32.367Z,9.30
2023-01-28T02:12:25.141Z,10.10
2023-01-28T02:14:56.653Z,10.07
2023-01-28T02:17:24.264Z,11.87
2023-01-28T02:20:22.874Z,14.50
2023-01-28T02:23:27.835Z,10.30
2023-01-28T02:26:10.554Z,15.90
2023-01-28T02:28:51.931Z,10.57
2023-01-28T02:31:29.526Z,11.40
2023-01-28T02:34:32.835Z,15.67
2023-01-28T02:37:06.254Z,13.17
2023-01-28T02:39:40.711Z,11.40
2023-01-28T02:42:13.590Z,16.27
2023-01-28T02:44:40.147Z,12.43
2023-01-28T02:47:32.625Z,13.73
2023-01-28T02:50:04.225Z,15.10
2023-01-28T02:53:07.852Z,13.30
2023-01-28T02:56:19.084Z,14.13
2023-01-28T02:58:56.548Z,14.30
2023-01-28T03:01:39.050Z,15.53
2023-01-28T03:04:51.580Z,19.60
2023-01-28T03:07:19.749Z,14.20
2023-01-28T03:09:48.459Z,14.50
2023-01-28T03:12:43.007Z,14.83
2023-01-28T03:15:58.040Z,13.20
2023-01-28T03:18:49.121Z,16.33
2023-01-28T03:21:53.192Z,15.33
2023-01-28T03:24:53.791Z,20.00
2023-01-28T03:27:47.769Z,16.70
2023-01-28T03:30:41.290Z,16.07
2023-01-28T03:33:27.042Z,15.43
2023-01-28T03:36:12.344Z,13.60
2023-01-28T03:38:48.327Z,14.80
2023-01-28T03:41:23.130Z,13.53
2023-01-28T03:43:50.800Z,14.07
2023-01-28T03:46:18.327Z,14.57
2023-01-28T03:48:45.288Z,14.27
2023-01-28T03:51:12.514Z,14.17
2023-01-28T03:53:40.242Z,13.87
2023-01-28T03:56:07.230Z,12.80
2023-01-28T03:58:52.235Z,12.10
2023-01-28T04:01:19.973Z,12.77
2023-01-28T04:03:46.713Z,16.53
2023-01-28T04:06:13.892Z,16.20
2023-01-28T04:08:46.011Z,13.20
2023-01-28T04:11:15.674Z,14.97
2023-01-28T04:13:43.087Z,13.67
2023-01-28T04:16:14.825Z,12.67
2023-01-28T04:18:41.967Z,14.97
2023-01-28T04:21:08.945Z,18.33
2023-01-28T04:23:35.887Z,14.73
2023-01-28T04:26:03.950Z,13.80
2023-01-28T04:28:31.086Z,13.50
2023-01-28T04:30:57.760Z,19.67
2023-01-28T04:33:24.368Z,14.23
2023-01-28T04:35:50.924Z,14.10
2023-01-28T04:38:17.493Z,13.90
2023-01-28T04:40:44.029Z,13.53
2023-01-28T04:43:10.601Z,14.07
2023-01-28T04:45:37.153Z,10.83
2023-01-28T04:48:03.779Z,11.53
2023-01-28T04:50:30.359Z,18.90
2023-01-28T04:52:56.947Z,16.23
2023-01-28T04:55:23.485Z,12.60
2023-01-28T04:57:50.020Z,17.70
2023-01-28T05:00:17.149Z,16.33
2023-01-28T05:02:43.745Z,17.03
2023-01-28T05:05:10.372Z,14.87
2023-01-28T05:07:37.311Z,15.30
2023-01-28T05:10:04.891Z,16.67
2023-01-28T05:12:32.931Z,18.47
2023-01-28T05:15:00.613Z,17.33
2023-01-28T05:17:28.191Z,22.23
2023-01-28T05:19:54.784Z,17.23
2023-01-28T05:22:21.409Z,16.67
2023-01-28T05:24:47.956Z,19.33
2023-01-28T05:27:14.483Z,17.90
2023-01-28T05:29:41.070Z,18.17
2023-01-28T05:32:07.703Z,14.93
2023-01-28T05:34:34.370Z,16.97
2023-01-28T05:37:01.159Z,21.13
2023-01-28T05:39:27.751Z,19.57
2023-01-28T05:41:54.303Z,20.50
2023-01-28T05:44:20.893Z,26.37
2023-01-28T05:46:47.659Z,18.80
2023-01-28T05:49:14.351Z,17.70
2023-01-28T05:51:41.295Z,17.40
2023-01-28T05:54:08.752Z,18.70
2023-01-28T05:56:36.430Z,16.70
2023-01-28T05:59:04.047Z,18.27
2023-01-28T06:01:30.649Z,17.13
2023-01-28T06:03:57.326Z,16.83
2023-01-28T06:06:23.905Z,17.60
2023-01-28T06:08:50.527Z,16.90
2023-01-28T06:11:18.961Z,17.70
2023-01-28T06:13:46.233Z,16.63
2023-01-28T06:16:13.073Z,16.70
2023-01-28T06:18:41.181Z,15.40
2023-01-28T06:21:08.024Z,16.83
2023-01-28T06:23:34.546Z,18.43
2023-01-28T06:26:01.105Z,14.47
2023-01-28T06:28:27.862Z,14.40
2023-01-28T06:30:54.848Z,18.00
2023-01-28T06:33:22.153Z,16.37
2023-01-28T06:35:48.718Z,15.43
2023-01-28T06:38:15.364Z,17.47
2023-01-28T06:40:42.195Z,20.77
2023-01-28T06:43:08.716Z,15.80
2023-01-28T06:45:35.357Z,18.33
2023-01-28T06:48:03.406Z,15.87
2023-01-28T06:50:30.642Z,14.73
2023-01-28T06:52:57.166Z,15.97
2023-01-28T06:55:23.729Z,16.90
2023-01-28T06:57:50.254Z,14.03
2023-01-28T07:00:17.738Z,14.93
2023-01-28T07:02:44.537Z,17.07
2023-01-28T07:05:11.572Z,18.20
2023-01-28T07:07:40.760Z,14.03
2023-01-28T07:10:08.972Z,20.33
2023-01-28T07:12:35.518Z,15.60
2023-01-28T07:15:02.141Z,15.87
2023-01-28T07:17:28.759Z,15.60
2023-01-28T07:19:55.347Z,16.20
2023-01-28T07:22:21.979Z,15.23
2023-01-28T07:24:48.544Z,15.90
2023-01-28T07:27:15.477Z,15.40
2023-01-28T07:29:42.053Z,17.30
2023-01-28T07:32:08.696Z,17.17
2023-01-28T07:34:38.430Z,15.63
2023-01-28T07:37:06.572Z,18.33
2023-01-28T07:39:33.193Z,21.93
2023-01-28T07:41:59.770Z,20.27
2023-01-28T07:44:26.423Z,16.13
2023-01-28T07:46:53.827Z,21.03
2023-01-28T07:49:23.265Z,24.07
2023-01-28T07:51:50.947Z,16.60
2023-01-28T07:54:17.702Z,17.73
2023-01-28T07:56:44.304Z,15.80
2023-01-28T07:59:10.908Z,21.60
2023-01-28T08:01:37.659Z,21.87
2023-01-28T08:04:04.380Z,16.90
2023-01-28T08:06:31.312Z,18.00
2023-01-28T08:08:57.870Z,17.90
2023-01-28T08:11:24.427Z,15.80
2023-01-28T08:13:51.109Z,18.23
2023-01-28T08:16:17.689Z,18.23
2023-01-28T08:18:44.297Z,17.43
2023-01-28T08:21:10.847Z,19.50
2023-01-28T08:23:38.079Z,17.40
2023-01-28T08:26:04.696Z,17.87
2023-01-28T08:28:32.005Z,18.00
2023-01-28T08:31:01.474Z,16.10
2023-01-28T08:33:28.436Z,15.97
2023-01-28T08:35:55.068Z,15.20
2023-01-28T08:38:21.751Z,15.83
2023-01-28T08:40:50.440Z,16.97
2023-01-28T08:43:17.095Z,23.23
2023-01-28T08:45:43.675Z,19.20
2023-01-28T08:48:14.634Z,16.63
2023-01-28T08:50:41.289Z,17.77
2023-01-28T08:53:11.674Z,18.50
2023-01-28T08:55:38.709Z,17.73
2023-01-28T08:58:07.159Z,15.80
2023-01-28T09:00:34.546Z,15.20
2023-01-28T09:03:01.961Z,15.20
2023-01-28T09:05:31.957Z,14.30
2023-01-28T09:08:05.854Z,17.23
2023-01-28T09:10:32.564Z,14.03
2023-01-28T09:12:59.192Z,13.43
2023-01-28T09:15:25.766Z,11.37
2023-01-28T09:17:57.998Z,21.23
2023-01-28T09:20:24.817Z,11.70
2023-01-28T09:22:52.963Z,12.90
2023-01-28T09:25:19.860Z,13.40
2023-01-28T09:27:46.560Z,13.10
2023-01-28T09:30:14.270Z,14.20
2023-01-28T09:32:41.078Z,14.20
2023-01-28T09:35:09.805Z,15.47
2023-01-28T09:37:36.443Z,14.53
2023-01-28T09:40:03.830Z,17.17
2023-01-28T09:42:58.971Z,20.10
2023-01-28T09:45:36.826Z,20.23
2023-01-28T09:48:06.436Z,18.37
2023-01-28T09:50:38.470Z,18.20
2023-01-28T09:53:13.654Z,16.33
2023-01-28T09:55:45.958Z,17.30
2023-01-28T09:58:15.907Z,16.20
2023-01-28T10:00:52.702Z,18.13
2023-01-28T10:03:19.271Z,15.87
2023-01-28T10:05:53.680Z,19.03
2023-01-28T10:08:41.976Z,20.23
2023-01-28T10:11:39.551Z,18.87
2023-01-28T10:14:47.781Z,18.00
2023-01-28T10:17:42.152Z,16.63
2023-01-28T10:20:11.826Z,21.10
2023-01-28T10:23:07.413Z,20.43
2023-01-28T10:25:35.744Z,16.17
2023-01-28T10:28:03.032Z,17.47
2023-01-28T10:30:35.051Z,21.10
2023-01-28T10:33:10.541Z,15.03
2023-01-28T10:35:41.780Z,17.30
2023-01-28T10:38:13.465Z,22.93
2023-01-28T10:40:42.532Z,19.70
2023-01-28T10:43:09.588Z,19.27
2023-01-28T10:45:59.143Z,23.00
2023-01-28T10:48:42.197Z,19.30
2023-01-28T10:51:08.751Z,21.23
2023-01-28T10:53:40.948Z,22.37
2023-01-28T10:56:10.860Z,19.00
2023-01-28T10:58:59.727Z,19.93
2023-01-28T11:01:45.272Z,19.07
2023-01-28T11:04:27.331Z,19.90
2023-01-28T11:07:01.990Z,22.67
2023-01-28T11:09:38.342Z,18.50
2023-01-28T11:12:20.229Z,28.53
2023-01-28T11:15:04.946Z,22.73
2023-01-28T11:17:35.825Z,23.93
2023-01-28T11:20:19.145Z,20.10
2023-01-28T11:22:46.202Z,22.63
2023-01-28T11:25:23.806Z,21.43
2023-01-28T11:27:53.258Z,21.47
2023-01-28T11:30:40.665Z,25.13
2023-01-28T11:33:23.570Z,22.03
2023-01-28T11:35:55.283Z,25.33
2023-01-28T11:38:25.694Z,22.53
2023-01-28T11:40:57.265Z,21.10
2023-01-28T11:43:26.277Z,23.67
2023-01-28T11:46:08.821Z,21.23
2023-01-28T11:48:53.546Z,20.73
2023-01-28T11:51:45.185Z,19.97
2023-01-28T11:54:29.697Z,23.73
2023-01-28T11:57:34.942Z,24.00
2023-01-28T12:00:32.571Z,19.83
2023-01-28T12:03:24.844Z,23.97
2023-01-28T12:06:19.954Z,24.03
2023-01-28T12:09:13.325Z,28.43
2023-01-28T12:12:10.451Z,21.57
2023-01-28T12:15:01.791Z,18.97
2023-01-28T12:17:42.442Z,21.97
2023-01-28T12:20:45.890Z,21.03
2023-01-28T12:23:35.649Z,22.07
2023-01-28T12:26:49.576Z,21.77
2023-01-28T12:29:33.807Z,23.40
2023-01-28T12:32:31.398Z,19.57
2023-01-28T12:35:35.494Z,22.87
2023-01-28T12:38:15.429Z,26.70
2023-01-28T12:41:15.462Z,23.33
2023-01-28T12:43:56.940Z,23.60
2023-01-28T12:46:39.023Z,22.30
2023-01-28T12:49:19.261Z,20.20
2023-01-28T12:52:20.048Z,23.70
2023-01-28T12:55:06.320Z,19.70
2023-01-28T12:57:35.251Z,24.87
2023-01-28T13:00:39.403Z,22.77
2023-01-28T13:03:28.521Z,20.80
2023-01-28T13:06:07.164Z,21.73
2023-01-28T13:08:34.021Z,21.83
2023-01-28T13:11:04.001Z,19.23
2023-01-28T13:13:44.744Z,17.20
2023-01-28T13:16:16.672Z,20.33
2023-01-28T13:18:46.270Z,20.47
2023-01-28T13:21:47.443Z,19.70
2023-01-28T13:24:15.572Z,28.00
2023-01-28T13:27:12.319Z,41.00
2023-01-28T13:29:38.969Z,28.30
2023-01-28T13:32:32.805Z,20.77
2023-01-28T13:35:25.338Z,22.83
2023-01-28T13:37:51.986Z,23.37
2023-01-28T13:40:28.358Z,24.50
2023-01-28T13:43:06.815Z,24.00
2023-01-28T13:45:34.634Z,21.20
2023-01-28T13:48:13.421Z,22.97
2023-01-28T13:50:42.696Z,24.43
2023-01-28T13:53:27.765Z,20.70
2023-01-28T13:55:58.997Z,20.37
2023-01-28T13:59:03.686Z,27.63
2023-01-28T14:02:07.695Z,20.77
2023-01-28T14:04:54.480Z,23.80
2023-01-28T14:07:58.582Z,21.43
2023-01-28T14:10:39.067Z,21.70
2023-01-28T14:13:40.796Z,23.77
2023-01-28T14:16:30.850Z,22.87
2023-01-28T14:19:01.409Z,27.33
2023-01-28T14:21:31.929Z,22.57
2023-01-28T14:23:59.997Z,22.50
2023-01-28T14:26:39.055Z,20.30
2023-01-28T14:29:31.516Z,24.93
2023-01-28T14:31:58.955Z,26.30
2023-01-28T14:34:31.923Z,20.93
2023-01-28T14:37:12.987Z,20.97
2023-01-28T14:39:47.930Z,23.37
2023-01-28T14:42:21.559Z,33.57
2023-01-28T14:44:58.762Z,22.03
2023-01-28T14:47:59.000Z,22.30
2023-01-28T14:51:22.432Z,18.37
2023-01-28T14:54:13.403Z,22.63
2023-01-28T14:57:00.946Z,21.63
2023-01-28T14:59:37.435Z,24.07
2023-01-28T15:02:17.713Z,22.47
2023-01-28T15:04:44.408Z,26.30
2023-01-28T15:07:24.107Z,19.20
2023-01-28T15:10:20.692Z,24.77
2023-01-28T15:13:07.482Z,21.43
2023-01-28T15:15:36.978Z,21.80
2023-01-28T15:18:12.578Z,22.60
2023-01-28T15:20:43.334Z,21.97
2023-01-28T15:23:09.919Z,26.90
2023-01-28T15:25:37.087Z,24.87
2023-01-28T15:28:03.972Z,25.53
2023-01-28T15:30:32.507Z,21.47
2023-01-28T15:33:04.390Z,22.43
2023-01-28T15:35:32.942Z,22.57
2023-01-28T15:37:59.631Z,24.43
2023-01-28T15:40:26.273Z,22.20
2023-01-28T15:42:55.192Z,22.30
2023-01-28T15:45:25.918Z,24.37
2023-01-28T15:48:01.581Z,19.17
2023-01-28T15:50:28.440Z,23.43
2023-01-28T15:52:55.465Z,24.67
2023-01-28T15:55:36.769Z,24.63
2023-01-28T15:58:12.240Z,23.37
2023-01-28T16:00:39.052Z,27.57
2023-01-28T16:03:09.987Z,24.70
2023-01-28T16:05:40.244Z,25.87
2023-01-28T16:08:26.359Z,23.07
2023-01-28T16:10:55.502Z,24.63
2023-01-28T16:13:24.866Z,27.03
2023-01-28T16:15:56.356Z,27.50
2023-01-28T16:18:38.466Z,29.50
2023-01-28T16:21:10.193Z,32.57
2023-01-28T16:23:39.509Z,29.90
2023-01-28T16:26:21.313Z,29.47
2023-01-28T16:28:47.914Z,27.77
2023-01-28T16:31:14.702Z,30.53
2023-01-28T16:33:41.522Z,24.60
2023-01-28T16:36:13.834Z,30.93
2023-01-28T16:38:40.969Z,30.33
2023-01-28T16:41:22.710Z,33.30
2023-01-28T16:43:49.362Z,32.63
2023-01-28T16:46:16.094Z,36.47
2023-01-28T16:48:42.636Z,32.03
2023-01-28T16:51:18.021Z,37.47
2023-01-28T16:53:47.577Z,33.60
2023-01-28T16:56:35.843Z,31.90
2023-01-28T16:59:10.429Z,34.17
2023-01-28T17:01:37.268Z,31.20
2023-01-28T17:04:11.500Z,33.10
2023-01-28T17:06:41.918Z,36.33
2023-01-28T17:09:08.616Z,32.57
2023-01-28T17:11:35.676Z,40.07
2023-01-28T17:14:02.607Z,42.23
2023-01-28T17:16:29.343Z,32.87
2023-01-28T17:18:56.101Z,34.47
2023-01-28T17:21:22.787Z,37.07
2023-01-28T17:23:49.850Z,36.77
2023-01-28T17:26:17.163Z,30.73
2023-01-28T17:28:44.152Z,33.30
2023-01-28T17:31:13.268Z,43.03
2023-01-28T17:33:41.188Z,35.70
2023-01-28T17:36:08.841Z,41.10
2023-01-28T17:38:35.817Z,33.77
2023-01-28T17:41:08.161Z,33.40
2023-01-28T17:43:34.943Z,36.57
2023-01-28T17:46:09.661Z,38.00
2023-01-28T17:48:36.326Z,32.67
2023-01-28T17:51:02.985Z,35.43
2023-01-28T17:53:29.552Z,37.57
2023-01-28T17:55:56.197Z,31.77
2023-01-28T17:58:22.863Z,40.27
2023-01-28T18:00:49.446Z,38.57
2023-01-28T18:03:16.346Z,44.83
2023-01-28T18:05:42.957Z,47.57
2023-01-28T18:08:09.731Z,46.50
2023-01-28T18:10:36.464Z,66.40
2023-01-28T18:13:03.241Z,53.67
2023-01-28T18:15:29.914Z,55.03
2023-01-28T18:17:56.523Z,49.40
2023-01-28T18:20:23.099Z,51.13
2023-01-28T18:22:49.725Z,44.63
2023-01-28T18:25:18.729Z,48.80
2023-01-28T18:27:45.978Z,45.13
2023-01-28T18:30:14.084Z,53.67
2023-01-28T18:32:40.984Z,59.33
2023-01-28T18:35:07.966Z,52.20
2023-01-28T18:37:34.541Z,46.27
2023-01-28T18:40:01.156Z,61.10
2023-01-28T18:42:27.860Z,47.47
2023-01-28T18:44:54.446Z,47.80
2023-01-28T18:47:22.357Z,54.30
2023-01-28T18:49:49.683Z,51.10
2023-01-28T18:52:16.655Z,51.80
2023-01-28T18:54:43.231Z,49.50
2023-01-28T18:57:09.842Z,44.47
2023-01-28T18:59:36.402Z,52.90
2023-01-28T19:02:03.205Z,50.07
2023-01-28T19:04:30.032Z,46.50
2023-01-28T19:06:57.281Z,61.17
2023-01-28T19:09:23.987Z,51.33
2023-01-28T19:11:50.902Z,54.43
2023-01-28T19:14:17.807Z,62.10
2023-01-28T19:16:44.479Z,56.67
2023-01-28T19:19:12.108Z,51.00
2023-01-28T19:21:38.859Z,57.50
2023-01-28T19:24:09.525Z,74.00
2023-01-28T19:26:36.996Z,63.67
2023-01-28T19:29:06.684Z,78.47
2023-01-28T19:31:33.318Z,64.43
2023-01-28T19:34:00.659Z,60.03
2023-01-28T19:36:29.803Z,55.43
2023-01-28T19:39:01.289Z,59.17
2023-01-28T19:41:28.856Z,52.87
2023-01-28T19:43:56.663Z,54.13
2023-01-28T19:46:23.299Z,54.30
2023-01-28T19:48:49.870Z,59.77
2023-01-28T19:51:17.177Z,62.97
2023-01-28T19:53:44.736Z,58.50
2023-01-28T19:56:14.140Z,59.63
2023-01-28T19:58:42.437Z,67.57
2023-01-28T20:01:15.545Z,65.53
2023-01-28T20:03:42.872Z,65.43
2023-01-28T20:06:15.577Z,63.57
2023-01-28T20:08:43.634Z,63.87
2023-01-28T20:11:15.734Z,71.03
2023-01-28T20:13:44.579Z,70.70
2023-01-28T20:16:19.175Z,61.63
2023-01-28T20:18:55.171Z,60.43
2023-01-28T20:21:22.019Z,62.43
2023-01-28T20:23:50.077Z,59.43
2023-01-28T20:26:17.187Z,62.37
2023-01-28T20:28:43.905Z,55.47
2023-01-28T20:31:11.071Z,65.60
2023-01-28T20:33:38.445Z,55.67
2023-01-28T20:36:07.724Z,52.67
2023-01-28T20:38:36.176Z,62.43
2023-01-28T20:41:07.805Z,56.33
2023-01-28T20:43:38.612Z,51.70
2023-01-28T20:46:07.226Z,50.30
2023-01-28T20:48:34.517Z,55.60
2023-01-28T20:51:09.290Z,53.57
2023-01-28T20:53:35.920Z,57.33
2023-01-28T20:56:02.758Z,60.13
2023-01-28T20:58:29.494Z,66.77
2023-01-28T21:00:56.249Z,59.30
2023-01-28T21:03:22.981Z,55.40
2023-01-28T21:05:49.931Z,61.03
2023-01-28T21:08:16.546Z,51.17
2023-01-28T21:10:43.168Z,58.80
2023-01-28T21:13:11.276Z,59.87
2023-01-28T21:15:38.420Z,60.50
2023-01-28T21:18:05.561Z,64.70
2023-01-28T21:20:33.371Z,64.30
2023-01-28T21:22:59.987Z,75.90
2023-01-28T21:25:26.940Z,67.10
2023-01-28T21:27:53.939Z,64.77
2023-01-28T21:30:20.652Z,52.70
2023-01-28T21:32:47.185Z,51.13
2023-01-28T21:35:13.923Z,50.93
2023-01-28T21:37:45.916Z,56.83
2023-01-28T21:40:12.942Z,54.03
2023-01-28T21:42:39.510Z,57.87
2023-01-28T21:45:06.748Z,58.80
2023-01-28T21:47:33.284Z,57.43
2023-01-28T21:50:02.849Z,57.73
2023-01-28T21:52:29.416Z,55.10
2023-01-28T21:54:56.222Z,54.83
2023-01-28T21:57:22.841Z,61.33
2023-01-28T21:59:49.417Z,56.60
2023-01-28T22:02:16.022Z,65.10
2023-01-28T22:04:46.177Z,60.57
2023-01-28T22:07:17.127Z,70.37
2023-01-28T22:09:47.732Z,61.60
2023-01-28T22:12:21.998Z,56.10
2023-01-28T22:14:50.081Z,67.67
2023-01-28T22:17:19.012Z,62.10
2023-01-28T22:19:47.962Z,68.83
2023-01-28T22:22:15.927Z,63.77
2023-01-28T22:24:42.546Z,64.37
2023-01-28T22:27:09.318Z,60.17
2023-01-28T22:29:35.869Z,62.63
2023-01-28T22:32:04.640Z,73.40
2023-01-28T22:34:31.623Z,62.37
2023-01-28T22:37:00.153Z,66.67
2023-01-28T22:39:26.737Z,62.60
2023-01-28T22:41:53.319Z,75.33
2023-01-28T22:44:20.186Z,66.90
2023-01-28T22:46:47.600Z,65.13
2023-01-28T22:49:14.998Z,59.63
2023-01-28T22:51:42.217Z,70.70
2023-01-28T22:54:11.261Z,63.50
2023-01-28T22:56:38.387Z,60.47
2023-01-28T22:59:05.022Z,71.17
2023-01-28T23:01:32.010Z,59.43
2023-01-28T23:03:59.084Z,57.43
2023-01-28T23:06:27.524Z,60.03
2023-01-28T23:08:56.069Z,58.00
2023-01-28T23:11:27.046Z,59.00
2023-01-28T23:14:14.415Z,55.77
2023-01-28T23:16:59.884Z,58.20
2023-01-28T23:19:45.440Z,58.30
2023-01-28T23:22:44.993Z,57.30
2023-01-28T23:25:12.175Z,58.43
2023-01-28T23:27:38.787Z,62.47
2023-01-28T23:30:09.833Z,59.37
2023-01-28T23:32:43.906Z,65.27
2023-01-28T23:35:12.063Z,56.07
2023-01-28T23:37:38.822Z,56.63
2023-01-28T23:40:06.717Z,55.50
2023-01-28T23:42:33.372Z,60.90
2023-01-28T23:45:00.042Z,72.37
2023-01-28T23:47:26.726Z,67.90
2023-01-28T23:49:53.472Z,78.37
2023-01-28T23:52:20.012Z,65.30
2023-01-28T23:54:46.642Z,59.60
2023-01-28T23:57:13.288Z,52.17
2023-01-28T23:59:40.011Z,51.87
